Aérodrome :
LOGIN :

S'inscrire | Disclaimer

   EN    FR    IT 

 










Légende :    VFR   VFR Marginal   IFR   IFR Intensif   IFR Très Intensif
Visi : 
Plafond : 
>= 8 km
>= 3000ft
5 à 8 km
1000 à 3000 ft
1500m à 5 km
500 à 1000 ft
800 à 1500m
200 à 500 ft
< 800m
< 200 ft
Symboles :   Orages  Brouillard  Fortes neiges  Fortes précipitations  Vent > 20 kt
SIGMETs :   Divers  Orages  Givrage  Turbulence  Onde Orograph.  Cendres Volcan.






- Altitude de l'aérodrome : -13 ft
- Code IATA : LEY


EHLE - Lelystad

DERNIER METAR :
  • 071525Z AUTO 34006KT 280V060 9999 SCT042 22/12 Q1024 NOSIG

METARs EXPIRÉS :
  • 071455Z AUTO 33007KT 280V020 9999 NSC 21/11 Q1024 NOSIG
  • 071425Z AUTO 32009KT 270V010 9999 NSC 22/11 Q1024 NOSIG
  • 071355Z AUTO 33009KT 290V360 9999 NSC 22/11 Q1024 NOSIG
  • 071325Z AUTO 34008KT 290V030 9999 NSC 21/10 Q1025 NOSIG
  • 071255Z AUTO 33007KT 280V360 9999 NSC 22/10 Q1025 NOSIG

TAF TAF EHLE
Valide du 07 à 12h jusqu'au 08 à 18h UTC


071106Z 0712/0818 35007KT 9999 SCT030
BECMG 0722/0801 VRB02KT 5000 BR MIFG
PROB30
TEMPO 0800/0805 0700 BCFG
BECMG 0803/0806 9999 NSW
BECMG 0809/0812 34008KT



MET'MAP, la Météo Aéronautique d'un coup d'oeil ! - Copyright ORBIFLY Décembre 2007 - Disclaimer

ORBIFLY MET'MAP TEAM :

Programmation & Développement : Alexandra Zaïnal
Sur une idée originale de : Baudouin d'Aumeries
Soutien technique & logistique : Manuel Goepfert
Assistance : Marc-Olivier Méhu




SOURCES & CREDITS :

   NOAA